createdAt,value
2023-04-11T00:00:11.262Z,1017.09
2023-04-11T00:01:12.125Z,1017.07
2023-04-11T00:02:13.118Z,1017.04
2023-04-11T00:03:14.177Z,1017.03
2023-04-11T00:04:14.716Z,1017.00
2023-04-11T00:05:15.560Z,1016.97
2023-04-11T00:06:16.441Z,1016.96
2023-04-11T00:07:17.317Z,1016.93
2023-04-11T00:08:18.202Z,1016.90
2023-04-11T00:09:19.093Z,1016.87
2023-04-11T00:10:19.977Z,1016.83
2023-04-11T00:11:20.858Z,1016.80
2023-04-11T00:12:21.738Z,1016.76
2023-04-11T00:13:22.642Z,1016.72
2023-04-11T00:14:23.523Z,1016.71
2023-04-11T00:15:24.429Z,1016.70
2023-04-11T00:16:25.303Z,1016.67
2023-04-11T00:17:26.192Z,1016.66
2023-04-11T00:18:27.082Z,1016.64
2023-04-11T00:19:27.961Z,1016.61
2023-04-11T00:20:28.854Z,1016.58
2023-04-11T00:21:29.718Z,1016.54
2023-04-11T00:22:30.645Z,1016.54
2023-04-11T00:23:31.511Z,1016.54
2023-04-11T00:24:32.380Z,1016.52
2023-04-11T00:25:33.260Z,1016.48
2023-04-11T00:26:34.131Z,1016.49
2023-04-11T00:27:35.014Z,1016.49
2023-04-11T00:28:35.919Z,1016.49
2023-04-11T00:29:36.788Z,1016.52
2023-04-11T00:30:37.706Z,1016.52
2023-04-11T00:31:38.557Z,1016.49
2023-04-11T00:32:39.453Z,1016.47
2023-04-11T00:33:41.073Z,1016.47
2023-04-11T00:34:41.010Z,1016.46
2023-04-11T00:35:41.906Z,1016.47
2023-04-11T00:36:42.840Z,1016.47
2023-04-11T00:37:43.721Z,1016.44
2023-04-11T00:38:44.745Z,1016.46
2023-04-11T00:39:45.168Z,1016.49
2023-04-11T00:40:46.054Z,1016.51
2023-04-11T00:41:46.928Z,1016.53
2023-04-11T00:42:47.813Z,1016.54
2023-04-11T00:43:48.703Z,1016.54
2023-04-11T00:44:49.594Z,1016.56
2023-04-11T00:45:50.508Z,1016.57
2023-04-11T00:46:51.354Z,1016.58
2023-04-11T00:47:52.266Z,1016.57
2023-04-11T00:48:53.259Z,1016.57
2023-04-11T00:49:53.638Z,1016.56
2023-04-11T00:50:54.520Z,1016.53
2023-04-11T00:51:55.402Z,1016.48
2023-04-11T00:52:56.282Z,1016.40
2023-04-11T00:53:57.177Z,1016.31
2023-04-11T00:54:58.069Z,1016.20
2023-04-11T00:55:58.941Z,1016.14
2023-04-11T00:56:59.820Z,1016.10
2023-04-11T00:58:00.703Z,1016.08
2023-04-11T00:59:01.591Z,1016.06
2023-04-11T01:00:02.476Z,1016.06
2023-04-11T01:01:03.412Z,1016.09
2023-04-11T01:02:04.411Z,1016.04
2023-04-11T01:03:04.951Z,1016.04
2023-04-11T01:04:05.532Z,1015.99
2023-04-11T01:05:06.039Z,1015.93
2023-04-11T01:06:06.894Z,1015.88
2023-04-11T01:07:07.777Z,1015.83
2023-04-11T01:08:08.660Z,1015.78
2023-04-11T01:09:09.555Z,1015.78
2023-04-11T01:10:10.434Z,1015.80
2023-04-11T01:11:11.322Z,1015.79
2023-04-11T01:12:12.206Z,1015.80
2023-04-11T01:13:13.103Z,1015.77
2023-04-11T01:14:13.970Z,1015.77
2023-04-11T01:15:14.852Z,1015.74
2023-04-11T01:16:15.791Z,1015.72
2023-04-11T01:17:16.637Z,1015.75
2023-04-11T01:18:17.510Z,1015.76
2023-04-11T01:19:18.405Z,1015.70
2023-04-11T01:20:19.285Z,1015.66
2023-04-11T01:21:20.182Z,1015.60
2023-04-11T01:22:21.049Z,1015.58
2023-04-11T01:23:21.929Z,1015.58
2023-04-11T01:24:22.815Z,1015.63
2023-04-11T01:25:23.709Z,1015.69
2023-04-11T01:26:24.581Z,1015.73
2023-04-11T01:27:25.468Z,1015.77
2023-04-11T01:28:26.344Z,1015.79
2023-04-11T01:29:27.234Z,1015.81
2023-04-11T01:30:28.201Z,1015.82
2023-04-11T01:31:29.082Z,1015.82
2023-04-11T01:32:29.944Z,1015.85
2023-04-11T01:33:30.832Z,1015.88
2023-04-11T01:34:31.697Z,1015.87
2023-04-11T01:35:32.602Z,1015.85
2023-04-11T01:36:33.468Z,1015.87
2023-04-11T01:37:34.340Z,1015.89
2023-04-11T01:38:35.225Z,1015.91
2023-04-11T01:39:36.116Z,1015.90
2023-04-11T01:40:36.996Z,1015.91
2023-04-11T01:41:37.877Z,1015.90
2023-04-11T01:42:38.927Z,1015.89
2023-04-11T01:43:39.273Z,1015.89
2023-04-11T01:44:40.167Z,1015.86
2023-04-11T01:45:41.079Z,1015.84
2023-04-11T01:46:41.958Z,1015.84
2023-04-11T01:47:42.875Z,1015.81
2023-04-11T01:48:43.834Z,1015.80
2023-04-11T01:49:44.693Z,1015.78
2023-04-11T01:50:45.568Z,1015.80
2023-04-11T01:51:46.456Z,1015.78
2023-04-11T01:52:47.339Z,1015.80
2023-04-11T01:53:48.220Z,1015.82
2023-04-11T01:54:49.108Z,1015.83
2023-04-11T01:55:49.987Z,1015.81
2023-04-11T01:56:50.873Z,1015.82
2023-04-11T01:57:51.764Z,1015.82
2023-04-11T01:58:52.706Z,1015.80
2023-04-11T01:59:53.556Z,1015.77
2023-04-11T02:00:54.434Z,1015.73
2023-04-11T02:01:55.406Z,1015.74
2023-04-11T02:02:56.388Z,1015.75
2023-04-11T02:03:56.888Z,1015.77
2023-04-11T02:04:57.318Z,1015.78
2023-04-11T02:05:58.212Z,1015.75
2023-04-11T02:06:59.084Z,1015.72
2023-04-11T02:07:59.971Z,1015.70
2023-04-11T02:09:00.866Z,1015.64
2023-04-11T02:10:01.745Z,1015.58
2023-04-11T02:11:02.610Z,1015.54
2023-04-11T02:12:03.517Z,1015.52
2023-04-11T02:13:04.374Z,1015.53
2023-04-11T02:14:05.266Z,1015.49
2023-04-11T02:15:06.151Z,1015.42
2023-04-11T02:16:07.154Z,1015.30
2023-04-11T02:17:08.013Z,1015.22
2023-04-11T02:18:08.905Z,1015.17
2023-04-11T02:19:09.814Z,1015.16
2023-04-11T02:20:10.636Z,1015.13
2023-04-11T02:21:11.516Z,1015.15
2023-04-11T02:22:12.389Z,1015.14
2023-04-11T02:23:13.272Z,1015.12
2023-04-11T02:24:14.172Z,1015.11
2023-04-11T02:25:15.044Z,1015.11
2023-04-11T02:26:15.915Z,1015.12
2023-04-11T02:27:16.798Z,1015.08
2023-04-11T02:28:17.692Z,1015.06
2023-04-11T02:29:18.594Z,1015.10
2023-04-11T02:30:19.459Z,1015.14
2023-04-11T02:31:20.398Z,1015.20
2023-04-11T02:32:21.303Z,1015.29
2023-04-11T02:33:22.158Z,1015.37
2023-04-11T02:34:23.049Z,1015.44
2023-04-11T02:35:23.941Z,1015.47
2023-04-11T02:36:24.816Z,1015.44
2023-04-11T02:37:25.703Z,1015.33
2023-04-11T02:38:26.579Z,1015.27
2023-04-11T02:39:27.472Z,1015.18
2023-04-11T02:40:28.355Z,1015.11
2023-04-11T02:41:29.237Z,1015.06
2023-04-11T02:42:30.117Z,1015.08
2023-04-11T02:43:31.016Z,1015.10
2023-04-11T02:44:31.892Z,1015.11
2023-04-11T02:45:32.781Z,1015.11
2023-04-11T02:46:33.665Z,1015.08
2023-04-11T02:47:34.579Z,1015.08
2023-04-11T02:48:35.451Z,1015.08
2023-04-11T02:49:36.357Z,1015.07
2023-04-11T02:50:37.233Z,1015.03
2023-04-11T02:51:38.106Z,1015.03
2023-04-11T02:52:39.001Z,1015.04
2023-04-11T02:53:39.875Z,1015.06
2023-04-11T02:54:40.767Z,1015.12
2023-04-11T02:55:41.671Z,1015.11
2023-04-11T02:56:42.523Z,1015.11
2023-04-11T02:57:43.395Z,1015.05
2023-04-11T02:58:44.277Z,1015.02
2023-04-11T02:59:45.167Z,1014.98
2023-04-11T03:00:46.051Z,1014.93
2023-04-11T03:01:46.948Z,1014.88
2023-04-11T03:02:47.910Z,1014.88
2023-04-11T03:03:48.850Z,1014.87
2023-04-11T03:04:49.277Z,1014.86
2023-04-11T03:05:50.155Z,1014.79
2023-04-11T03:06:51.035Z,1014.77
2023-04-11T03:07:51.920Z,1014.77
2023-04-11T03:08:52.998Z,1014.77
2023-04-11T03:09:53.386Z,1014.73
2023-04-11T03:10:54.279Z,1014.71
2023-04-11T03:11:55.160Z,1014.72
2023-04-11T03:12:56.030Z,1014.77
2023-04-11T03:13:56.915Z,1014.83
2023-04-11T03:14:57.807Z,1014.88
2023-04-11T03:15:58.715Z,1014.88
2023-04-11T03:16:59.578Z,1014.90
2023-04-11T03:18:00.531Z,1014.90
2023-04-11T03:19:01.395Z,1014.91
2023-04-11T03:20:02.293Z,1014.90
2023-04-11T03:21:03.180Z,1014.87
2023-04-11T03:22:04.052Z,1014.86
2023-04-11T03:23:04.971Z,1014.84
2023-04-11T03:24:05.876Z,1014.81
2023-04-11T03:25:06.761Z,1014.81
2023-04-11T03:26:07.678Z,1014.79
2023-04-11T03:27:08.524Z,1014.79
2023-04-11T03:28:09.406Z,1014.76
2023-04-11T03:29:10.292Z,1014.75
2023-04-11T03:30:11.191Z,1014.72
2023-04-11T03:31:12.091Z,1014.68
2023-04-11T03:32:12.946Z,1014.59
2023-04-11T03:33:13.846Z,1014.52
2023-04-11T03:34:14.699Z,1014.51
2023-04-11T03:35:15.590Z,1014.50
2023-04-11T03:36:16.490Z,1014.52
2023-04-11T03:37:17.357Z,1014.49
2023-04-11T03:38:18.238Z,1014.46
2023-04-11T03:39:19.124Z,1014.40
2023-04-11T03:40:20.028Z,1014.38
2023-04-11T03:41:20.892Z,1014.38
2023-04-11T03:42:21.771Z,1014.38
2023-04-11T03:43:22.663Z,1014.39
2023-04-11T03:44:23.541Z,1014.43
2023-04-11T03:45:24.435Z,1014.37
2023-04-11T03:46:25.313Z,1014.34
2023-04-11T03:47:26.239Z,1014.30
2023-04-11T03:48:27.101Z,1014.34
2023-04-11T03:49:27.961Z,1014.36
2023-04-11T03:50:28.855Z,1014.37
2023-04-11T03:51:29.745Z,1014.39
2023-04-11T03:52:30.619Z,1014.44
2023-04-11T03:53:31.496Z,1014.48
2023-04-11T03:54:32.386Z,1014.49
2023-04-11T03:55:33.284Z,1014.53
2023-04-11T03:56:34.149Z,1014.56
2023-04-11T03:57:35.031Z,1014.62
2023-04-11T03:58:35.916Z,1014.65
2023-04-11T03:59:36.798Z,1014.64
2023-04-11T04:00:37.687Z,1014.65
2023-04-11T04:01:38.690Z,1014.63
2023-04-11T04:02:39.306Z,1014.59
2023-04-11T04:03:40.158Z,1014.56
2023-04-11T04:04:40.830Z,1014.56
2023-04-11T04:05:41.246Z,1014.50
2023-04-11T04:06:42.106Z,1014.43
2023-04-11T04:07:42.988Z,1014.45
2023-04-11T04:08:43.885Z,1014.52
2023-04-11T04:09:44.759Z,1014.51
2023-04-11T04:10:45.653Z,1014.43
2023-04-11T04:11:46.526Z,1014.37
2023-04-11T04:12:47.410Z,1014.32
2023-04-11T04:13:48.288Z,1014.32
2023-04-11T04:14:49.197Z,1014.28
2023-04-11T04:15:50.062Z,1014.23
2023-04-11T04:16:50.978Z,1014.24
2023-04-11T04:17:51.894Z,1014.23
2023-04-11T04:18:52.779Z,1014.24
2023-04-11T04:19:53.640Z,1014.24
2023-04-11T04:20:54.539Z,1014.19
2023-04-11T04:21:55.360Z,1014.11
2023-04-11T04:22:56.259Z,1014.03
2023-04-11T04:23:57.468Z,1013.99
2023-04-11T04:24:58.204Z,1013.94
2023-04-11T04:25:58.634Z,1013.96
2023-04-11T04:26:59.466Z,1013.98
2023-04-11T04:28:00.290Z,1013.96
2023-04-11T04:29:01.166Z,1013.91
2023-04-11T04:30:04.156Z,1013.81
2023-04-11T04:31:02.553Z,1013.79
2023-04-11T04:32:03.491Z,1013.78
2023-04-11T04:33:04.357Z,1013.76
2023-04-11T04:34:05.155Z,1013.70
2023-04-11T04:35:05.970Z,1013.59
2023-04-11T04:36:06.820Z,1013.55
2023-04-11T04:37:07.628Z,1013.49
2023-04-11T04:38:08.461Z,1013.51
2023-04-11T04:39:09.290Z,1013.53
2023-04-11T04:40:10.118Z,1013.50
2023-04-11T04:41:11.037Z,1013.52
2023-04-11T04:42:11.795Z,1013.46
2023-04-11T04:43:12.631Z,1013.44
2023-04-11T04:44:13.453Z,1013.40
2023-04-11T04:45:14.301Z,1013.41
2023-04-11T04:46:15.253Z,1013.50
2023-04-11T04:47:16.038Z,1013.52
2023-04-11T04:48:16.869Z,1013.50
2023-04-11T04:49:17.721Z,1013.52
2023-04-11T04:50:18.521Z,1013.48
2023-04-11T04:51:19.368Z,1013.49
2023-04-11T04:52:20.193Z,1013.48
2023-04-11T04:53:21.015Z,1013.48
2023-04-11T04:54:21.857Z,1013.51
2023-04-11T04:55:22.678Z,1013.57
2023-04-11T04:56:23.528Z,1013.66
2023-04-11T04:57:24.351Z,1013.80
2023-04-11T04:58:25.174Z,1013.86
2023-04-11T04:59:26.011Z,1013.84
2023-04-11T05:00:26.840Z,1013.92
2023-04-11T05:01:27.698Z,1013.99
2023-04-11T05:02:28.749Z,1013.99
2023-04-11T05:03:29.330Z,1014.05
2023-04-11T05:04:29.769Z,1014.02
2023-04-11T05:05:30.607Z,1014.05
2023-04-11T05:06:31.457Z,1014.09
2023-04-11T05:07:32.264Z,1014.11
2023-04-11T05:08:33.086Z,1014.14
2023-04-11T05:09:33.937Z,1014.16
2023-04-11T05:10:34.746Z,1014.14
2023-04-11T05:11:35.573Z,1014.09
2023-04-11T05:12:36.398Z,1014.10
2023-04-11T05:13:37.217Z,1014.18
2023-04-11T05:14:38.076Z,1014.27
2023-04-11T05:15:38.866Z,1014.37
2023-04-11T05:16:39.732Z,1014.48
2023-04-11T05:17:40.557Z,1014.52
2023-04-11T05:18:41.358Z,1014.54
2023-04-11T05:19:42.209Z,1014.58
2023-04-11T05:20:43.023Z,1014.57
2023-04-11T05:21:43.855Z,1014.58
2023-04-11T05:22:44.678Z,1014.55
2023-04-11T05:23:45.527Z,1014.52
2023-04-11T05:24:46.328Z,1014.55
2023-04-11T05:25:47.160Z,1014.54
2023-04-11T05:26:47.995Z,1014.54
2023-04-11T05:27:48.825Z,1014.56
2023-04-11T05:28:49.656Z,1014.62
2023-04-11T05:29:50.483Z,1014.66
2023-04-11T05:30:51.347Z,1014.66
2023-04-11T05:31:52.155Z,1014.59
2023-04-11T05:32:53.058Z,1014.39
2023-04-11T05:33:54.074Z,1014.31
2023-04-11T05:34:57.321Z,1014.28
2023-04-11T05:35:55.216Z,1014.26
2023-04-11T05:36:56.031Z,1014.25
2023-04-11T05:37:56.856Z,1014.29
2023-04-11T05:38:57.678Z,1014.22
2023-04-11T05:39:58.507Z,1014.14
2023-04-11T05:40:59.335Z,1014.14
2023-04-11T05:42:00.176Z,1014.14
2023-04-11T05:43:01.004Z,1014.19
2023-04-11T05:44:01.897Z,1014.18
2023-04-11T05:45:02.693Z,1014.14
2023-04-11T05:46:03.532Z,1014.05
2023-04-11T05:47:04.357Z,1014.01
2023-04-11T05:48:05.255Z,1014.00
2023-04-11T05:49:06.046Z,1013.97
2023-04-11T05:50:06.901Z,1013.97
2023-04-11T05:51:07.709Z,1014.00
2023-04-11T05:52:08.528Z,1014.03
2023-04-11T05:53:09.358Z,1014.09
2023-04-11T05:54:10.186Z,1014.12
2023-04-11T05:55:11.017Z,1014.11
2023-04-11T05:56:11.843Z,1014.12
2023-04-11T05:57:12.692Z,1014.09
2023-04-11T05:58:13.508Z,1014.06
2023-04-11T05:59:14.337Z,1014.04
2023-04-11T06:00:15.165Z,1014.07
2023-04-11T06:01:16.036Z,1014.11
2023-04-11T06:02:17.084Z,1014.14
2023-04-11T06:03:17.675Z,1014.11
2023-04-11T06:04:18.383Z,1014.10
2023-04-11T06:05:18.973Z,1014.10
2023-04-11T06:06:19.769Z,1014.07
2023-04-11T06:07:20.609Z,1014.06
2023-04-11T06:08:21.487Z,1014.02
2023-04-11T06:09:22.301Z,1014.02
2023-04-11T06:10:23.132Z,1014.03
2023-04-11T06:11:23.951Z,1013.97
2023-04-11T06:12:24.786Z,1013.92
2023-04-11T06:13:25.606Z,1013.93
2023-04-11T06:14:26.436Z,1013.92
2023-04-11T06:15:27.263Z,1013.90
2023-04-11T06:16:28.136Z,1013.90
2023-04-11T06:17:29.000Z,1013.87
2023-04-11T06:18:29.776Z,1013.87
2023-04-11T06:19:30.605Z,1013.83
2023-04-11T06:20:31.501Z,1013.83
2023-04-11T06:21:32.278Z,1013.81
2023-04-11T06:22:33.124Z,1013.81
2023-04-11T06:23:33.944Z,1013.80
2023-04-11T06:24:34.764Z,1013.83
2023-04-11T06:25:35.608Z,1013.86
2023-04-11T06:26:36.429Z,1013.87
2023-04-11T06:27:37.257Z,1013.91
2023-04-11T06:28:38.086Z,1014.01
2023-04-11T06:29:38.911Z,1014.09
2023-04-11T06:30:39.745Z,1014.16
2023-04-11T06:31:40.631Z,1014.19
2023-04-11T06:32:41.490Z,1014.24
2023-04-11T06:33:42.280Z,1014.27
2023-04-11T06:34:43.101Z,1014.30
2023-04-11T06:35:43.987Z,1014.30
2023-04-11T06:36:44.803Z,1014.22
2023-04-11T06:37:45.629Z,1014.19
2023-04-11T06:38:46.456Z,1014.18
2023-04-11T06:39:47.287Z,1014.21
2023-04-11T06:40:48.111Z,1014.23
2023-04-11T06:41:48.929Z,1014.21
2023-04-11T06:42:49.769Z,1014.21
2023-04-11T06:43:50.603Z,1014.21
2023-04-11T06:44:51.424Z,1014.24
2023-04-11T06:45:52.251Z,1014.26
2023-04-11T06:46:53.108Z,1014.31
2023-04-11T06:47:54.010Z,1014.35
2023-04-11T06:48:54.822Z,1014.38
2023-04-11T06:49:55.680Z,1014.40
2023-04-11T06:50:56.506Z,1014.42
2023-04-11T06:51:57.317Z,1014.40
2023-04-11T06:52:58.158Z,1014.40
2023-04-11T06:53:58.972Z,1014.41
2023-04-11T06:54:59.805Z,1014.46
2023-04-11T06:56:00.630Z,1014.48
2023-04-11T06:57:01.456Z,1014.49
2023-04-11T06:58:02.297Z,1014.48
2023-04-11T06:59:03.134Z,1014.48
2023-04-11T07:00:03.949Z,1014.50
2023-04-11T07:01:04.795Z,1014.53
2023-04-11T07:02:05.675Z,1014.56
2023-04-11T07:03:06.660Z,1014.55
2023-04-11T07:04:07.154Z,1014.54
2023-04-11T07:05:08.000Z,1014.57
2023-04-11T07:06:08.971Z,1014.56
2023-04-11T07:07:09.731Z,1014.57
2023-04-11T07:08:10.562Z,1014.57
2023-04-11T07:09:11.391Z,1014.57
2023-04-11T07:10:12.220Z,1014.56
2023-04-11T07:11:13.051Z,1014.55
2023-04-11T07:12:13.885Z,1014.57
2023-04-11T07:13:14.709Z,1014.59
2023-04-11T07:14:15.555Z,1014.58
2023-04-11T07:15:16.370Z,1014.59
2023-04-11T07:16:17.247Z,1014.62
2023-04-11T07:17:18.033Z,1014.67
2023-04-11T07:18:18.861Z,1014.71
2023-04-11T07:19:19.688Z,1014.73
2023-04-11T07:20:20.520Z,1014.72
2023-04-11T07:21:21.368Z,1014.70
2023-04-11T07:22:22.170Z,1014.69
2023-04-11T07:23:23.831Z,1014.71
2023-04-11T07:24:23.714Z,1014.72
2023-04-11T07:25:24.541Z,1014.73
2023-04-11T07:26:25.365Z,1014.77
2023-04-11T07:27:26.194Z,1014.77
2023-04-11T07:28:27.033Z,1014.75
2023-04-11T07:29:27.864Z,1014.73
2023-04-11T07:30:28.705Z,1014.73
2023-04-11T07:31:29.572Z,1014.75
2023-04-11T07:32:30.436Z,1014.79
2023-04-11T07:33:31.246Z,1014.81
2023-04-11T07:34:32.079Z,1014.85
2023-04-11T07:35:32.982Z,1014.89
2023-04-11T07:36:33.806Z,1014.92
2023-04-11T07:37:34.615Z,1014.92
2023-04-11T07:38:35.444Z,1014.95
2023-04-11T07:39:36.276Z,1014.98
2023-04-11T07:40:37.098Z,1015.01
2023-04-11T07:41:37.928Z,1015.02
2023-04-11T07:42:38.769Z,1015.06
2023-04-11T07:43:39.752Z,1015.10
2023-04-11T07:44:40.581Z,1015.07
2023-04-11T07:45:41.443Z,1015.08
2023-04-11T07:46:42.247Z,1015.07
2023-04-11T07:47:43.090Z,1015.09
2023-04-11T07:48:43.902Z,1015.10
2023-04-11T07:49:44.731Z,1015.13
2023-04-11T07:50:45.552Z,1015.15
2023-04-11T07:51:46.402Z,1015.18
2023-04-11T07:52:47.205Z,1015.19
2023-04-11T07:53:48.043Z,1015.19
2023-04-11T07:54:48.869Z,1015.17
2023-04-11T07:55:49.698Z,1015.16
2023-04-11T07:56:50.517Z,1015.14
2023-04-11T07:57:51.355Z,1015.13
2023-04-11T07:58:52.195Z,1015.13
2023-04-11T07:59:53.011Z,1015.13
2023-04-11T08:00:53.867Z,1015.15
2023-04-11T08:01:54.730Z,1015.13
2023-04-11T08:02:55.724Z,1015.10
2023-04-11T08:03:56.599Z,1015.12
2023-04-11T08:04:56.861Z,1015.10
2023-04-11T08:05:57.703Z,1015.14
2023-04-11T08:06:58.555Z,1015.20
2023-04-11T08:07:59.367Z,1015.20
2023-04-11T08:09:00.210Z,1015.21
2023-04-11T08:10:01.033Z,1015.20
2023-04-11T08:11:01.864Z,1015.17
2023-04-11T08:12:02.692Z,1015.13
2023-04-11T08:13:03.520Z,1015.12
2023-04-11T08:14:04.366Z,1015.12
2023-04-11T08:15:05.190Z,1015.12
2023-04-11T08:16:06.050Z,1015.12
2023-04-11T08:17:17.667Z,1015.14
2023-04-11T08:18:11.805Z,1015.13
2023-04-11T08:19:08.381Z,1015.08
2023-04-11T08:20:09.204Z,1015.10
2023-04-11T08:21:10.036Z,1015.11
2023-04-11T08:22:10.887Z,1015.13
2023-04-11T08:23:11.693Z,1015.12
2023-04-11T08:24:12.520Z,1015.12
2023-04-11T08:25:13.358Z,1015.13
2023-04-11T08:26:14.174Z,1015.14
2023-04-11T08:27:15.010Z,1015.16
2023-04-11T08:28:15.828Z,1015.18
2023-04-11T08:29:16.669Z,1015.21
2023-04-11T08:30:17.500Z,1015.24
2023-04-11T08:31:18.414Z,1015.23
2023-04-11T08:32:19.345Z,1015.22
2023-04-11T08:33:20.147Z,1015.22
2023-04-11T08:34:20.979Z,1015.22
2023-04-11T08:35:21.832Z,1015.23
2023-04-11T08:36:22.635Z,1015.24
2023-04-11T08:37:23.490Z,1015.26
2023-04-11T08:38:24.324Z,1015.23
2023-04-11T08:39:25.122Z,1015.21
2023-04-11T08:40:27.149Z,1015.20
2023-04-11T08:41:26.560Z,1015.19
2023-04-11T08:42:27.389Z,1015.17
2023-04-11T08:43:28.225Z,1015.18
2023-04-11T08:44:29.053Z,1015.20
2023-04-11T08:45:29.885Z,1015.22
2023-04-11T08:46:30.844Z,1015.24
2023-04-11T08:47:31.247Z,1015.26
2023-04-11T08:48:32.074Z,1015.27
2023-04-11T08:49:32.903Z,1015.29
2023-04-11T08:50:33.727Z,1015.30
2023-04-11T08:51:34.547Z,1015.32
2023-04-11T08:52:35.503Z,1015.32
2023-04-11T08:53:36.333Z,1015.32
2023-04-11T08:54:37.151Z,1015.26
2023-04-11T08:55:37.979Z,1015.22
2023-04-11T08:56:38.813Z,1015.19
2023-04-11T08:57:39.636Z,1015.18
2023-04-11T08:58:42.496Z,1015.20
2023-04-11T08:59:41.334Z,1015.20
2023-04-11T09:00:42.162Z,1015.19
2023-04-11T09:01:43.139Z,1015.23
2023-04-11T09:02:44.054Z,1015.28
2023-04-11T09:03:44.971Z,1015.29
2023-04-11T09:04:45.857Z,1015.31
2023-04-11T09:05:46.650Z,1015.35
2023-04-11T09:06:47.479Z,1015.35
2023-04-11T09:07:48.334Z,1015.34
2023-04-11T09:08:49.291Z,1015.38
2023-04-11T09:09:49.727Z,1015.37
2023-04-11T09:10:50.562Z,1015.36
2023-04-11T09:11:51.384Z,1015.37
2023-04-11T09:12:52.214Z,1015.35
2023-04-11T09:13:53.150Z,1015.36
2023-04-11T09:14:54.099Z,1015.38
2023-04-11T09:15:55.207Z,1015.39
2023-04-11T09:16:55.508Z,1015.39
2023-04-11T09:17:58.927Z,1015.38
2023-04-11T09:18:57.428Z,1015.39
2023-04-11T09:19:57.872Z,1015.36
2023-04-11T09:20:58.702Z,1015.38
2023-04-11T09:21:59.532Z,1015.40
2023-04-11T09:23:00.383Z,1015.40
2023-04-11T09:24:01.197Z,1015.41
2023-04-11T09:25:02.030Z,1015.43
2023-04-11T09:26:02.859Z,1015.48
2023-04-11T09:27:03.692Z,1015.50
2023-04-11T09:28:04.513Z,1015.51
2023-04-11T09:29:05.341Z,1015.54
2023-04-11T09:30:06.170Z,1015.57
2023-04-11T09:31:07.026Z,1015.60
2023-04-11T09:32:07.831Z,1015.62
2023-04-11T09:33:08.752Z,1015.63
2023-04-11T09:34:09.543Z,1015.62
2023-04-11T09:35:10.409Z,1015.60
2023-04-11T09:36:11.255Z,1015.59
2023-04-11T09:37:12.047Z,1015.64
2023-04-11T09:38:12.914Z,1015.68
2023-04-11T09:39:13.712Z,1015.71
2023-04-11T09:40:14.559Z,1015.72
2023-04-11T09:41:15.370Z,1015.74
2023-04-11T09:42:16.204Z,1015.78
2023-04-11T09:43:18.409Z,1015.77
2023-04-11T09:44:17.718Z,1015.73
2023-04-11T09:45:18.544Z,1015.68
2023-04-11T09:46:19.433Z,1015.64
2023-04-11T09:47:20.277Z,1015.62
2023-04-11T09:48:24.830Z,1015.63
2023-04-11T09:49:22.782Z,1015.65
2023-04-11T09:50:22.643Z,1015.66
2023-04-11T09:51:35.679Z,1015.67
2023-04-11T09:52:25.192Z,1015.66
2023-04-11T09:53:25.024Z,1015.64
2023-04-11T09:54:25.840Z,1015.63
2023-04-11T09:55:26.661Z,1015.64
2023-04-11T09:56:27.487Z,1015.63
2023-04-11T09:57:28.328Z,1015.61
2023-04-11T09:58:31.276Z,1015.61
2023-04-11T09:59:30.112Z,1015.59
2023-04-11T10:00:30.939Z,1015.52
2023-04-11T10:01:31.794Z,1015.49
2023-04-11T10:02:32.682Z,1015.51
2023-04-11T10:03:33.584Z,1015.53
2023-04-11T10:04:34.551Z,1015.59
2023-04-11T10:05:35.362Z,1015.59
2023-04-11T10:06:36.196Z,1015.57
2023-04-11T10:07:37.022Z,1015.59
2023-04-11T10:08:37.866Z,1015.60
2023-04-11T10:09:38.674Z,1015.60
2023-04-11T10:10:39.501Z,1015.65
2023-04-11T10:11:40.332Z,1015.65
2023-04-11T10:12:41.156Z,1015.66
2023-04-11T10:13:41.987Z,1015.71
2023-04-11T10:14:42.812Z,1015.75
2023-04-11T10:15:43.640Z,1015.78
2023-04-11T10:16:44.589Z,1015.82
2023-04-11T10:17:45.034Z,1015.85
2023-04-11T10:18:45.841Z,1015.84
2023-04-11T10:19:46.671Z,1015.84
2023-04-11T10:20:47.501Z,1015.82
2023-04-11T10:21:48.330Z,1015.69
2023-04-11T10:22:49.173Z,1015.65
2023-04-11T10:23:50.012Z,1015.59
2023-04-11T10:24:50.828Z,1015.57
2023-04-11T10:25:51.643Z,1015.55
2023-04-11T10:26:52.476Z,1015.59
2023-04-11T10:27:53.368Z,1015.60
2023-04-11T10:28:54.260Z,1015.63
2023-04-11T10:29:55.086Z,1015.66
2023-04-11T10:30:55.913Z,1015.63
2023-04-11T10:31:56.936Z,1015.68
2023-04-11T10:32:57.338Z,1015.69
2023-04-11T10:33:58.396Z,1015.65
2023-04-11T10:34:58.766Z,1015.59
2023-04-11T10:35:59.661Z,1015.64
2023-04-11T10:37:00.454Z,1015.64
2023-04-11T10:38:01.293Z,1015.62
2023-04-11T10:39:02.139Z,1015.68
2023-04-11T10:40:02.949Z,1015.71
2023-04-11T10:41:03.775Z,1015.74
2023-04-11T10:42:04.623Z,1015.77
2023-04-11T10:43:05.434Z,1015.74
2023-04-11T10:44:06.274Z,1015.75
2023-04-11T10:45:07.205Z,1015.84
2023-04-11T10:46:07.970Z,1015.82
2023-04-11T10:47:08.839Z,1015.82
2023-04-11T10:48:09.630Z,1015.85
2023-04-11T10:49:10.470Z,1015.89
2023-04-11T10:50:11.295Z,1015.86
2023-04-11T10:51:12.124Z,1015.81
2023-04-11T10:52:12.952Z,1015.84
2023-04-11T10:53:13.779Z,1015.87
2023-04-11T10:54:14.716Z,1015.87
2023-04-11T10:55:15.491Z,1015.93
2023-04-11T10:56:16.677Z,1016.00
2023-04-11T10:57:16.949Z,1016.04
2023-04-11T10:58:17.776Z,1016.07
2023-04-11T10:59:18.615Z,1016.10
2023-04-11T11:00:19.459Z,1016.09
2023-04-11T11:01:31.497Z,1016.09
2023-04-11T11:02:22.418Z,1016.06
2023-04-11T11:03:21.897Z,1016.07
2023-04-11T11:04:22.838Z,1016.13
2023-04-11T11:05:23.699Z,1016.16
2023-04-11T11:06:24.512Z,1016.20
2023-04-11T11:07:25.337Z,1016.21
2023-04-11T11:08:26.165Z,1016.23
2023-04-11T11:09:27.025Z,1016.28
2023-04-11T11:10:27.832Z,1016.32
2023-04-11T11:11:28.658Z,1016.41
2023-04-11T11:12:29.486Z,1016.37
2023-04-11T11:13:30.313Z,1016.38
2023-04-11T11:14:31.171Z,1016.42
2023-04-11T11:15:31.996Z,1016.48
2023-04-11T11:16:32.864Z,1016.52
2023-04-11T11:17:33.691Z,1016.50
2023-04-11T11:18:34.496Z,1016.51
2023-04-11T11:19:35.330Z,1016.49
2023-04-11T11:20:36.159Z,1016.51
2023-04-11T11:21:36.990Z,1016.49
2023-04-11T11:22:37.817Z,1016.50
2023-04-11T11:23:38.641Z,1016.48
2023-04-11T11:24:39.516Z,1016.47
2023-04-11T11:25:40.333Z,1016.53
2023-04-11T11:26:41.158Z,1016.55
2023-04-11T11:27:41.977Z,1016.60
2023-04-11T11:28:42.794Z,1016.64
2023-04-11T11:29:43.692Z,1016.68
2023-04-11T11:30:44.520Z,1016.72
2023-04-11T11:31:45.485Z,1016.76
2023-04-11T11:32:45.875Z,1016.76
2023-04-11T11:33:46.687Z,1016.79
2023-04-11T11:34:47.537Z,1016.79
2023-04-11T11:35:48.368Z,1016.75
2023-04-11T11:36:49.244Z,1016.72
2023-04-11T11:37:50.052Z,1016.75
2023-04-11T11:38:50.868Z,1016.76
2023-04-11T11:39:51.746Z,1016.73
2023-04-11T11:40:52.528Z,1016.73
2023-04-11T11:41:53.372Z,1016.70
2023-04-11T11:42:54.181Z,1016.66
2023-04-11T11:43:55.342Z,1016.60
2023-04-11T11:44:55.726Z,1016.52
2023-04-11T11:45:56.569Z,1016.50
2023-04-11T11:46:57.387Z,1016.45
2023-04-11T11:47:58.242Z,1016.46
2023-04-11T11:48:59.481Z,1016.45
2023-04-11T11:49:59.578Z,1016.46
2023-04-11T11:51:00.416Z,1016.47
2023-04-11T11:52:01.235Z,1016.47
2023-04-11T11:53:02.069Z,1016.44
2023-04-11T11:54:02.906Z,1016.43
2023-04-11T11:55:03.833Z,1016.42
2023-04-11T11:56:04.624Z,1016.43
2023-04-11T11:57:05.441Z,1016.44
2023-04-11T11:58:06.275Z,1016.45
2023-04-11T11:59:07.100Z,1016.41
2023-04-11T12:00:07.945Z,1016.40
2023-04-11T12:01:08.770Z,1016.41
2023-04-11T12:02:09.670Z,1016.43
2023-04-11T12:03:10.619Z,1016.44
2023-04-11T12:04:11.572Z,1016.47
2023-04-11T12:05:12.115Z,1016.46
2023-04-11T12:06:12.929Z,1016.46
2023-04-11T12:07:13.746Z,1016.48
2023-04-11T12:08:14.575Z,1016.49
2023-04-11T12:09:15.402Z,1016.53
2023-04-11T12:10:16.328Z,1016.55
2023-04-11T12:11:17.095Z,1016.60
2023-04-11T12:12:17.926Z,1016.62
2023-04-11T12:13:18.766Z,1016.65
2023-04-11T12:14:19.590Z,1016.65
2023-04-11T12:15:20.428Z,1016.63